createdAt,value
2017-05-07T00:00:02.631Z,2.92
2017-05-07T00:02:30.058Z,3.17
2017-05-07T00:04:57.521Z,2.93
2017-05-07T00:07:25.053Z,3.82
2017-05-07T00:09:52.489Z,3.40
2017-05-07T00:12:19.945Z,3.33
2017-05-07T00:14:47.374Z,2.85
2017-05-07T00:17:14.797Z,3.32
2017-05-07T00:19:42.239Z,3.30
2017-05-07T00:22:09.740Z,3.72
2017-05-07T00:24:37.219Z,3.13
2017-05-07T00:27:04.657Z,4.20
2017-05-07T00:29:32.098Z,4.00
2017-05-07T00:31:59.533Z,4.68
2017-05-07T00:34:27.023Z,4.28
2017-05-07T00:36:54.453Z,3.62
2017-05-07T00:39:21.882Z,5.03
2017-05-07T00:41:49.337Z,5.18
2017-05-07T00:44:16.769Z,6.22
2017-05-07T00:46:44.204Z,5.70
2017-05-07T00:49:11.661Z,5.93
2017-05-07T00:51:39.098Z,6.52
2017-05-07T00:54:06.530Z,6.20
2017-05-07T00:56:33.993Z,6.32
2017-05-07T00:59:01.426Z,7.48
2017-05-07T01:01:28.874Z,7.42
2017-05-07T01:03:56.331Z,8.03
2017-05-07T01:06:23.774Z,9.57
2017-05-07T01:08:51.208Z,9.47
2017-05-07T01:11:18.699Z,13.98
2017-05-07T01:13:46.139Z,11.92
2017-05-07T01:16:13.581Z,11.33
2017-05-07T01:18:41.056Z,11.03
2017-05-07T01:21:08.491Z,13.05
2017-05-07T01:23:35.925Z,13.45
2017-05-07T01:26:03.378Z,13.17
2017-05-07T01:28:30.810Z,14.02
2017-05-07T01:30:58.250Z,13.83
2017-05-07T01:33:25.714Z,14.00
2017-05-07T01:35:53.150Z,14.88
2017-05-07T01:38:20.581Z,15.67
2017-05-07T01:40:53.089Z,15.90
2017-05-07T01:43:20.528Z,15.88
2017-05-07T01:45:47.965Z,15.77
2017-05-07T01:48:15.421Z,16.88
2017-05-07T01:50:42.854Z,17.93
2017-05-07T01:53:10.296Z,16.78
2017-05-07T01:55:37.743Z,15.72
2017-05-07T01:58:05.179Z,17.43
2017-05-07T02:00:32.609Z,17.47
2017-05-07T02:03:00.074Z,17.78
2017-05-07T02:05:27.515Z,17.30
2017-05-07T02:07:54.953Z,16.72
2017-05-07T02:10:22.402Z,15.07
2017-05-07T02:12:49.842Z,15.60
2017-05-07T02:15:17.276Z,16.02
2017-05-07T02:17:44.742Z,15.75
2017-05-07T02:20:12.185Z,16.12
2017-05-07T02:22:39.622Z,16.78
2017-05-07T02:25:07.079Z,15.95
2017-05-07T02:27:34.514Z,18.72
2017-05-07T02:30:01.945Z,19.10
2017-05-07T02:32:29.401Z,20.10
2017-05-07T02:34:56.836Z,17.52
2017-05-07T02:37:24.277Z,18.53
2017-05-07T02:39:51.734Z,17.25
2017-05-07T02:42:19.173Z,19.37
2017-05-07T02:44:46.615Z,18.52
2017-05-07T02:47:14.069Z,20.03
2017-05-07T02:49:41.501Z,18.20
2017-05-07T02:52:08.940Z,17.43
2017-05-07T02:54:36.400Z,18.52
2017-05-07T02:57:03.858Z,19.82
2017-05-07T02:59:31.294Z,16.92
2017-05-07T03:01:58.755Z,21.35
2017-05-07T03:04:26.193Z,21.65
2017-05-07T03:06:53.632Z,21.70
2017-05-07T03:09:21.086Z,21.05
2017-05-07T03:11:48.529Z,22.47
2017-05-07T03:14:15.981Z,22.98
2017-05-07T03:16:43.446Z,23.18
2017-05-07T03:19:10.886Z,19.98
2017-05-07T03:21:38.318Z,21.65
2017-05-07T03:24:05.770Z,22.20
2017-05-07T03:26:33.209Z,24.82
2017-05-07T03:29:00.641Z,23.42
2017-05-07T03:31:28.113Z,22.02
2017-05-07T03:33:55.574Z,22.45
2017-05-07T03:36:23.012Z,23.68
2017-05-07T03:38:50.461Z,23.67
2017-05-07T03:41:17.894Z,24.78
2017-05-07T03:43:45.345Z,25.88
2017-05-07T03:46:12.802Z,25.18
2017-05-07T03:48:40.236Z,26.63
2017-05-07T03:51:07.676Z,25.92
2017-05-07T03:53:35.122Z,27.02
2017-05-07T03:56:02.569Z,24.23
2017-05-07T03:58:30.007Z,25.40
2017-05-07T04:00:57.466Z,26.75
2017-05-07T04:03:24.906Z,24.82
2017-05-07T04:05:52.347Z,23.53
2017-05-07T04:08:19.796Z,23.08
2017-05-07T04:10:47.230Z,23.20
2017-05-07T04:13:14.670Z,23.23
2017-05-07T04:15:42.124Z,22.77
2017-05-07T04:18:09.557Z,24.12
2017-05-07T04:20:37.009Z,22.18
2017-05-07T04:23:04.461Z,25.93
2017-05-07T04:25:31.897Z,23.87
2017-05-07T04:27:59.331Z,22.88
2017-05-07T04:30:26.777Z,23.90
2017-05-07T04:32:54.210Z,24.17
2017-05-07T04:35:21.648Z,26.20
2017-05-07T04:37:49.116Z,25.07
2017-05-07T04:40:16.563Z,24.13
2017-05-07T04:42:43.994Z,25.52
2017-05-07T04:45:11.454Z,26.53
2017-05-07T04:47:38.889Z,24.47
2017-05-07T04:50:06.329Z,24.40
2017-05-07T04:52:33.797Z,26.33
2017-05-07T04:55:01.237Z,23.77
2017-05-07T04:57:28.667Z,23.35
2017-05-07T04:59:56.130Z,25.83
2017-05-07T05:02:23.569Z,26.47
2017-05-07T05:04:51.018Z,23.63
2017-05-07T05:07:18.481Z,25.20
2017-05-07T05:09:45.921Z,25.80
2017-05-07T05:12:13.354Z,26.30
2017-05-07T05:14:40.805Z,26.25
2017-05-07T05:17:08.246Z,27.10
2017-05-07T05:19:51.447Z,22.32
2017-05-07T05:22:19.522Z,24.87
2017-05-07T05:25:02.558Z,26.55
2017-05-07T05:27:45.405Z,25.90
2017-05-07T05:30:27.756Z,28.32
2017-05-07T05:32:55.194Z,25.98
2017-05-07T05:35:22.625Z,26.27
2017-05-07T05:37:50.081Z,26.95
2017-05-07T05:40:17.518Z,27.38
2017-05-07T05:42:44.949Z,26.82
2017-05-07T05:45:12.417Z,25.22
2017-05-07T05:47:39.867Z,25.22
2017-05-07T05:50:07.309Z,25.80
2017-05-07T05:52:34.770Z,27.32
2017-05-07T05:55:02.210Z,25.53
2017-05-07T05:57:29.656Z,25.48
2017-05-07T05:59:57.129Z,28.50
2017-05-07T06:02:24.580Z,26.52
2017-05-07T06:04:52.025Z,26.03
2017-05-07T06:07:19.477Z,25.10
2017-05-07T06:09:46.938Z,25.35
2017-05-07T06:12:14.375Z,24.75
2017-05-07T06:14:41.831Z,23.65
2017-05-07T06:17:09.266Z,25.15
2017-05-07T06:19:36.706Z,23.75
2017-05-07T06:22:04.162Z,23.35
2017-05-07T06:24:31.598Z,23.13
2017-05-07T06:26:59.034Z,23.97
2017-05-07T06:29:26.506Z,24.55
2017-05-07T06:31:53.942Z,22.48
2017-05-07T06:34:21.370Z,22.67
2017-05-07T06:36:48.838Z,22.37
2017-05-07T06:39:16.281Z,18.70
2017-05-07T06:41:43.717Z,18.95
2017-05-07T06:44:11.177Z,20.92
2017-05-07T06:46:38.615Z,20.43
2017-05-07T06:49:06.054Z,19.48
2017-05-07T06:51:33.506Z,17.97
2017-05-07T06:54:00.945Z,20.02
2017-05-07T06:56:28.374Z,20.18
2017-05-07T06:58:55.825Z,19.72
2017-05-07T07:01:23.258Z,19.97
2017-05-07T07:03:50.698Z,17.97
2017-05-07T07:06:18.151Z,18.28
2017-05-07T07:08:45.595Z,18.22
2017-05-07T07:11:13.034Z,16.52
2017-05-07T07:13:40.494Z,16.98
2017-05-07T07:16:07.929Z,18.13
2017-05-07T07:18:35.380Z,17.98
2017-05-07T07:21:02.833Z,16.60
2017-05-07T07:23:30.288Z,17.28
2017-05-07T07:25:57.722Z,16.22
2017-05-07T07:28:25.203Z,16.75
2017-05-07T07:30:52.638Z,18.35
2017-05-07T07:33:20.078Z,15.25
2017-05-07T07:35:47.534Z,14.85
2017-05-07T07:38:14.978Z,17.60
2017-05-07T07:40:42.426Z,16.72
2017-05-07T07:43:09.890Z,18.10
2017-05-07T07:45:37.334Z,17.97
2017-05-07T07:48:04.773Z,17.32
2017-05-07T07:50:32.242Z,16.98
2017-05-07T07:52:59.687Z,17.53
2017-05-07T07:55:27.139Z,17.53
2017-05-07T07:57:54.601Z,17.95
2017-05-07T08:00:22.039Z,17.12
2017-05-07T08:02:49.475Z,17.87
2017-05-07T08:05:16.941Z,16.30
2017-05-07T08:07:44.379Z,16.07
2017-05-07T08:10:11.828Z,17.88
2017-05-07T08:12:39.441Z,16.37
2017-05-07T08:15:06.878Z,16.27
2017-05-07T08:17:34.313Z,20.18
2017-05-07T08:20:01.778Z,19.10
2017-05-07T08:22:29.214Z,18.47
2017-05-07T08:24:57.642Z,17.95
2017-05-07T08:27:25.113Z,19.72
2017-05-07T08:29:52.549Z,17.08
2017-05-07T08:32:23.099Z,18.35
2017-05-07T08:34:50.554Z,18.28
2017-05-07T08:37:18.016Z,19.35
2017-05-07T08:39:45.449Z,19.62
2017-05-07T08:42:12.927Z,18.33
2017-05-07T08:44:40.383Z,18.93
2017-05-07T08:47:07.854Z,20.17
2017-05-07T08:49:35.305Z,18.80
2017-05-07T08:52:02.751Z,19.47
2017-05-07T08:54:30.208Z,19.62
2017-05-07T08:56:57.677Z,18.95
2017-05-07T08:59:25.119Z,17.68
2017-05-07T09:01:52.572Z,19.73
2017-05-07T09:04:20.045Z,17.55
2017-05-07T09:06:47.485Z,17.22
2017-05-07T09:09:14.926Z,16.13
2017-05-07T09:15:00.521Z,17.45
2017-05-07T09:17:49.622Z,18.28
2017-05-07T09:20:17.061Z,17.13
2017-05-07T09:22:44.494Z,16.38
2017-05-07T09:25:11.958Z,15.65
2017-05-07T09:27:39.409Z,12.77
2017-05-07T09:30:06.854Z,13.90
2017-05-07T09:32:34.310Z,12.18
2017-05-07T09:35:01.755Z,12.33
2017-05-07T09:37:29.194Z,27.08
2017-05-07T09:40:00.323Z,20.83
2017-05-07T09:42:27.781Z,17.43
2017-05-07T09:44:56.166Z,17.12
2017-05-07T09:47:23.612Z,16.90
2017-05-07T09:49:57.215Z,12.47
2017-05-07T09:52:30.155Z,13.47
2017-05-07T09:54:57.627Z,12.73
2017-05-07T09:57:25.070Z,12.27
2017-05-07T09:59:52.511Z,11.95
2017-05-07T10:02:20.057Z,11.40
2017-05-07T10:04:47.606Z,11.93
2017-05-07T10:07:15.051Z,12.17
2017-05-07T10:09:42.503Z,10.56
2017-05-07T10:12:10.027Z,10.27
2017-05-07T10:14:37.497Z,9.03
2017-05-07T10:17:04.962Z,9.24
2017-05-07T10:19:32.461Z,9.68
2017-05-07T10:22:04.049Z,9.50
2017-05-07T10:24:31.495Z,10.10
2017-05-07T10:26:58.938Z,9.10
2017-05-07T10:29:26.374Z,10.33
2017-05-07T10:31:53.858Z,9.90
2017-05-07T10:34:21.317Z,9.60
2017-05-07T10:36:48.753Z,10.37
2017-05-07T10:39:16.205Z,8.90
2017-05-07T10:41:43.685Z,9.13
2017-05-07T10:44:12.135Z,9.30
2017-05-07T10:46:39.574Z,10.63
2017-05-07T10:49:07.013Z,8.94
2017-05-07T10:51:34.440Z,9.84
2017-05-07T10:54:01.881Z,9.37
2017-05-07T10:56:29.346Z,8.80
2017-05-07T10:58:56.770Z,9.28
2017-05-07T11:01:24.198Z,9.46
2017-05-07T11:03:51.645Z,9.45
2017-05-07T11:06:19.082Z,9.95
2017-05-07T11:08:46.505Z,9.50
2017-05-07T11:11:13.953Z,9.30
2017-05-07T11:13:41.375Z,8.30
2017-05-07T11:16:08.801Z,9.46
2017-05-07T11:18:36.243Z,9.12
2017-05-07T11:21:03.662Z,8.70
2017-05-07T11:23:31.093Z,9.03
2017-05-07T11:25:58.529Z,8.42
2017-05-07T11:28:25.958Z,9.14
2017-05-07T11:30:53.378Z,9.16
2017-05-07T11:33:20.823Z,7.82
2017-05-07T11:35:48.262Z,8.72
2017-05-07T11:38:15.680Z,9.26
2017-05-07T11:40:43.129Z,9.88
2017-05-07T11:43:10.546Z,7.42
2017-05-07T11:45:37.970Z,7.50
2017-05-07T11:48:05.454Z,7.52
2017-05-07T11:50:32.865Z,8.66
2017-05-07T11:53:00.281Z,8.28
2017-05-07T11:55:27.721Z,7.78
2017-05-07T11:57:55.132Z,8.06
2017-05-07T12:00:22.562Z,8.76
2017-05-07T12:02:50.990Z,7.92
2017-05-07T12:05:18.418Z,8.90
2017-05-07T12:07:45.833Z,8.80
2017-05-07T12:10:13.275Z,9.96
2017-05-07T12:12:40.704Z,9.92
2017-05-07T12:15:08.141Z,10.24
2017-05-07T12:17:39.529Z,9.14
2017-05-07T12:20:06.963Z,9.96
2017-05-07T12:22:34.381Z,9.58
2017-05-07T12:25:01.835Z,7.04
2017-05-07T12:27:29.257Z,6.98
2017-05-07T12:29:56.690Z,7.78
2017-05-07T12:32:24.128Z,6.60
2017-05-07T12:34:51.550Z,7.18
2017-05-07T12:37:18.977Z,6.90
2017-05-07T12:39:48.389Z,6.92
2017-05-07T12:42:15.826Z,7.20
2017-05-07T12:44:43.245Z,7.94
2017-05-07T12:47:10.680Z,7.70
2017-05-07T12:49:38.098Z,7.90
2017-05-07T12:52:05.528Z,9.66
2017-05-07T12:54:32.974Z,8.22
2017-05-07T12:57:00.394Z,8.10
2017-05-07T12:59:27.852Z,7.50
2017-05-07T13:01:55.306Z,8.44
2017-05-07T13:04:22.733Z,8.44
2017-05-07T13:06:50.880Z,8.54
2017-05-07T13:09:18.326Z,10.00
2017-05-07T13:11:45.749Z,9.00
2017-05-07T13:14:13.178Z,10.60
2017-05-07T13:16:40.635Z,11.76
2017-05-07T13:19:08.069Z,14.22
2017-05-07T13:21:35.498Z,15.22
2017-05-07T13:24:02.945Z,16.74
2017-05-07T13:26:30.375Z,15.94
2017-05-07T13:28:57.809Z,15.96
2017-05-07T13:31:25.262Z,17.04
2017-05-07T13:33:52.697Z,15.28
2017-05-07T13:36:20.229Z,15.66
2017-05-07T13:38:47.721Z,16.32
2017-05-07T13:41:15.228Z,16.64
2017-05-07T13:43:42.738Z,16.82
2017-05-07T13:46:10.205Z,15.92
2017-05-07T13:48:37.650Z,15.68
2017-05-07T13:51:05.165Z,17.92
2017-05-07T13:53:32.618Z,16.80
2017-05-07T13:56:00.041Z,17.66
2017-05-07T13:58:28.441Z,17.06
2017-05-07T14:00:55.890Z,19.08
2017-05-07T14:03:23.322Z,19.10
2017-05-07T14:05:50.754Z,18.30
2017-05-07T14:08:18.211Z,18.42
2017-05-07T14:10:47.583Z,19.44
2017-05-07T14:13:15.006Z,18.50
2017-05-07T14:15:43.012Z,19.80
2017-05-07T14:18:10.450Z,17.58
2017-05-07T14:20:37.882Z,21.72
2017-05-07T14:23:06.334Z,20.84
2017-05-07T14:25:34.297Z,19.26
2017-05-07T14:28:01.731Z,19.14
2017-05-07T14:30:29.187Z,19.90
2017-05-07T14:32:56.626Z,18.84
2017-05-07T14:35:24.058Z,20.26
2017-05-07T14:37:53.454Z,18.12
2017-05-07T14:40:20.882Z,18.52
2017-05-07T14:42:48.309Z,19.92
2017-05-07T14:45:15.775Z,17.82
2017-05-07T14:47:43.202Z,17.78
2017-05-07T14:50:17.445Z,17.68
2017-05-07T14:52:44.874Z,17.44
2017-05-07T14:55:12.309Z,18.34
2017-05-07T14:57:39.765Z,18.50
2017-05-07T15:00:07.192Z,17.94
2017-05-07T15:02:34.646Z,19.76
2017-05-07T15:05:02.102Z,19.96
2017-05-07T15:07:29.549Z,20.70
2017-05-07T15:09:57.021Z,25.40
2017-05-07T15:12:25.410Z,27.92
2017-05-07T15:14:52.839Z,30.88
2017-05-07T15:17:20.849Z,31.88
2017-05-07T15:19:48.294Z,31.66
2017-05-07T15:22:15.765Z,31.94
2017-05-07T15:24:43.207Z,32.56
2017-05-07T15:27:10.678Z,31.46
2017-05-07T15:29:38.131Z,31.56
2017-05-07T15:32:13.638Z,33.16
2017-05-07T15:34:41.091Z,32.94
2017-05-07T15:37:08.530Z,33.08
2017-05-07T15:39:35.990Z,31.90
2017-05-07T15:42:03.423Z,32.74
2017-05-07T15:44:30.850Z,30.88
2017-05-07T15:46:58.305Z,29.06
2017-05-07T15:49:25.737Z,29.96
2017-05-07T15:51:53.182Z,25.54
2017-05-07T15:54:20.677Z,24.72
2017-05-07T15:56:48.122Z,23.32
2017-05-07T15:59:21.527Z,23.56
2017-05-07T16:01:50.921Z,23.70
2017-05-07T16:04:18.374Z,23.82
2017-05-07T16:06:45.832Z,21.28
2017-05-07T16:09:13.265Z,22.14
2017-05-07T16:11:40.718Z,24.00
2017-05-07T16:14:08.172Z,21.96
2017-05-07T16:16:47.707Z,22.54
2017-05-07T16:19:30.046Z,24.40
2017-05-07T16:25:30.770Z,26.40
2017-05-07T16:28:01.125Z,29.96
2017-05-07T16:30:29.277Z,29.34
2017-05-07T16:33:18.257Z,30.50
2017-05-07T16:35:45.694Z,30.16
2017-05-07T16:38:13.141Z,31.87
2017-05-07T16:40:40.605Z,39.48
2017-05-07T16:43:08.058Z,37.12
2017-05-07T16:45:35.486Z,38.14
2017-05-07T16:48:02.953Z,37.60
2017-05-07T16:50:30.381Z,38.30
2017-05-07T16:52:57.831Z,45.00
2017-05-07T16:55:25.287Z,47.64
2017-05-07T16:57:52.721Z,45.60
2017-05-07T17:00:20.176Z,49.28
2017-05-07T17:02:53.062Z,49.37
2017-05-07T17:05:22.512Z,50.98
2017-05-07T17:07:49.958Z,56.77
2017-05-07T17:10:17.430Z,54.50
2017-05-07T17:12:44.882Z,53.17
2017-05-07T17:15:12.330Z,54.27
2017-05-07T17:17:39.812Z,55.17
2017-05-07T17:20:07.258Z,55.48
2017-05-07T17:22:34.710Z,51.52
2017-05-07T17:25:02.187Z,56.17
2017-05-07T17:27:29.626Z,54.55
2017-05-07T17:29:57.061Z,56.80
2017-05-07T17:32:24.527Z,58.03
2017-05-07T17:34:52.093Z,56.70
2017-05-07T17:37:19.530Z,56.30
2017-05-07T17:39:46.987Z,54.12
2017-05-07T17:42:14.422Z,59.77
2017-05-07T17:44:41.859Z,57.15
2017-05-07T17:47:09.325Z,59.42
2017-05-07T17:49:36.773Z,57.55
2017-05-07T17:52:04.211Z,62.10
2017-05-07T17:54:31.687Z,61.07
2017-05-07T17:56:59.135Z,61.47
2017-05-07T17:59:26.582Z,60.25
2017-05-07T18:01:54.034Z,56.56
2017-05-07T18:04:21.501Z,56.35
2017-05-07T18:06:48.959Z,60.08
2017-05-07T18:09:16.425Z,58.23
2017-05-07T18:11:43.872Z,59.88
2017-05-07T18:14:11.329Z,59.68
2017-05-07T18:16:38.794Z,56.93
2017-05-07T18:19:06.229Z,53.33
2017-05-07T18:21:33.711Z,49.62
2017-05-07T18:24:01.166Z,52.72
2017-05-07T18:26:28.604Z,52.75
2017-05-07T18:28:56.051Z,60.32
2017-05-07T18:31:23.509Z,54.85
2017-05-07T18:33:50.955Z,49.58
2017-05-07T18:36:18.393Z,53.38
2017-05-07T18:38:45.869Z,54.90
2017-05-07T18:41:13.314Z,51.95
2017-05-07T18:43:40.745Z,51.22
2017-05-07T18:46:08.201Z,54.30
2017-05-07T18:48:35.634Z,56.92
2017-05-07T18:51:03.078Z,47.23
2017-05-07T18:53:30.538Z,47.95
2017-05-07T18:55:57.973Z,45.87
2017-05-07T18:58:25.405Z,46.57
2017-05-07T19:00:52.882Z,50.08
2017-05-07T19:03:20.326Z,45.82
2017-05-07T19:05:47.762Z,47.10
2017-05-07T19:08:15.217Z,47.33
2017-05-07T19:10:42.650Z,49.25
2017-05-07T19:13:10.088Z,45.75
2017-05-07T19:15:37.549Z,43.57
2017-05-07T19:18:04.997Z,42.77
2017-05-07T19:20:32.437Z,42.17
2017-05-07T19:22:59.906Z,44.63
2017-05-07T19:25:27.347Z,45.55
2017-05-07T19:27:54.786Z,46.15
2017-05-07T19:30:22.244Z,40.17
2017-05-07T19:32:49.686Z,42.60
2017-05-07T19:35:17.118Z,47.18
2017-05-07T19:37:44.593Z,45.98
2017-05-07T19:40:12.029Z,43.43
2017-05-07T19:42:39.465Z,46.18
2017-05-07T19:45:06.927Z,43.58
2017-05-07T19:47:34.363Z,46.12
2017-05-07T19:50:01.811Z,43.68
2017-05-07T19:52:29.274Z,46.68
2017-05-07T19:54:56.735Z,43.70
2017-05-07T19:57:24.170Z,41.65
2017-05-07T19:59:51.629Z,40.88
2017-05-07T20:02:19.070Z,43.68
2017-05-07T20:04:46.506Z,43.77
2017-05-07T20:07:13.953Z,40.90
2017-05-07T20:09:41.393Z,41.45
2017-05-07T20:12:09.779Z,44.48
2017-05-07T20:14:37.234Z,38.67
2017-05-07T20:17:04.686Z,39.48
2017-05-07T20:19:32.118Z,40.98
2017-05-07T20:21:59.577Z,42.87
2017-05-07T20:24:27.017Z,40.78
2017-05-07T20:26:54.461Z,38.93
2017-05-07T20:29:21.926Z,39.12
2017-05-07T20:31:49.359Z,43.52
2017-05-07T20:34:16.821Z,40.72
2017-05-07T20:36:44.285Z,39.33
2017-05-07T20:39:11.718Z,40.73
2017-05-07T20:41:39.153Z,41.27
2017-05-07T20:44:06.609Z,38.07
2017-05-07T20:46:34.045Z,38.92
2017-05-07T20:49:01.481Z,39.67
2017-05-07T20:51:28.938Z,40.78
2017-05-07T20:53:56.374Z,41.30
2017-05-07T20:56:33.930Z,42.17
2017-05-07T20:59:01.434Z,43.45
2017-05-07T21:01:28.873Z,42.55
2017-05-07T21:03:56.334Z,44.28
2017-05-07T21:06:23.773Z,43.35
2017-05-07T21:08:51.201Z,44.02
2017-05-07T21:11:18.646Z,41.18
2017-05-07T21:13:46.082Z,41.97
2017-05-07T21:16:13.521Z,40.93
2017-05-07T21:18:40.997Z,41.15
2017-05-07T21:21:08.434Z,42.13
2017-05-07T21:23:35.878Z,41.25
2017-05-07T21:26:03.335Z,42.32
2017-05-07T21:28:30.766Z,43.52
2017-05-07T21:30:58.207Z,41.72
2017-05-07T21:33:25.678Z,40.70
2017-05-07T21:35:53.110Z,37.87
2017-05-07T21:38:20.537Z,38.75
2017-05-07T21:40:49.937Z,34.32
2017-05-07T21:43:17.374Z,35.48
2017-05-07T21:45:46.789Z,38.98
2017-05-07T21:48:14.249Z,39.18
2017-05-07T21:50:41.706Z,33.43
2017-05-07T21:53:11.134Z,32.28
2017-05-07T21:55:38.602Z,34.65
2017-05-07T21:58:06.030Z,34.57
2017-05-07T22:00:33.462Z,35.53
2017-05-07T22:03:00.922Z,33.17
2017-05-07T22:05:28.362Z,34.32
2017-05-07T22:07:55.794Z,33.12
2017-05-07T22:10:23.241Z,31.88
2017-05-07T22:12:50.686Z,32.62
2017-05-07T22:15:18.118Z,35.32
2017-05-07T22:17:45.580Z,31.97
2017-05-07T22:20:13.006Z,32.77
2017-05-07T22:22:40.441Z,36.52
2017-05-07T22:25:07.902Z,32.37
2017-05-07T22:27:35.334Z,32.97
2017-05-07T22:30:02.782Z,33.93
2017-05-07T22:32:30.239Z,35.37
2017-05-07T22:34:57.670Z,34.73
2017-05-07T22:37:25.102Z,35.42
2017-05-07T22:39:52.561Z,33.43
2017-05-07T22:42:20.000Z,32.93
2017-05-07T22:44:47.445Z,29.82
2017-05-07T22:47:14.911Z,30.78
2017-05-07T22:49:42.458Z,28.57
2017-05-07T22:52:09.894Z,30.58
2017-05-07T22:54:37.350Z,32.38
2017-05-07T22:57:04.790Z,31.75
2017-05-07T22:59:32.226Z,30.83
2017-05-07T23:01:59.702Z,30.57
2017-05-07T23:04:27.139Z,30.60
2017-05-07T23:06:54.573Z,30.22
2017-05-07T23:09:22.035Z,29.22
2017-05-07T23:11:49.479Z,29.80
2017-05-07T23:14:16.914Z,30.53
2017-05-07T23:16:44.361Z,29.88
2017-05-07T23:19:12.502Z,29.67
2017-05-07T23:21:39.938Z,26.98
2017-05-07T23:24:07.410Z,28.93
2017-05-07T23:26:34.847Z,27.15
2017-05-07T23:29:02.289Z,26.07
2017-05-07T23:31:29.754Z,27.33
2017-05-07T23:33:57.185Z,24.40
2017-05-07T23:36:24.626Z,25.28
2017-05-07T23:38:52.090Z,26.60
2017-05-07T23:41:19.536Z,25.58
2017-05-07T23:43:46.970Z,24.72
2017-05-07T23:46:14.422Z,25.72
2017-05-07T23:48:41.862Z,31.20
2017-05-07T23:51:09.303Z,24.18
2017-05-07T23:53:36.770Z,27.27
2017-05-07T23:56:04.207Z,25.95
2017-05-07T23:58:31.646Z,26.98
